Time;durP1;ratioP1;P1;durP2;ratioP2;P2;SDS_P1;SDS_P2;PMS_P1;PMS_P2;Temp;Humidity;BMP_temperature;BMP_pressure;BME280_temperature;BME280_humidity;BME280_pressure;Samples;Min_cycle;Max_cycle;Signal;HPM_P1;HPM_P2
2020/12/27 00:00:17;;;;;;;2.43;2.23;;;5.50;1.00;;;;;;4977317;28;20195;-59
2020/12/27 00:02:42;;;;;;;4.32;2.70;;;5.50;1.00;;;;;;4977393;28;20897;-60
2020/12/27 00:05:09;;;;;;;2.33;2.13;;;5.50;1.00;;;;;;4977716;28;20271;-57
2020/12/27 00:07:34;;;;;;;2.58;1.95;;;5.50;1.00;;;;;;4977564;28;20223;-57
2020/12/27 00:10:00;;;;;;;4.20;2.30;;;5.50;1.00;;;;;;4977150;28;20184;-57
2020/12/27 00:12:26;;;;;;;2.23;2.03;;;5.40;1.00;;;;;;4977087;28;20493;-57
2020/12/27 00:14:52;;;;;;;1.60;1.47;;;5.50;1.00;;;;;;4976954;28;20439;-57
2020/12/27 00:17:18;;;;;;;2.60;2.00;;;5.50;1.00;;;;;;4976161;28;20176;-57
2020/12/27 00:19:43;;;;;;;2.30;1.97;;;5.50;1.00;;;;;;4977093;28;20226;-57
2020/12/27 00:22:09;;;;;;;4.50;3.40;;;5.50;1.00;;;;;;4977139;28;20432;-57
2020/12/27 00:24:35;;;;;;;6.07;3.65;;;5.40;1.00;;;;;;4974100;28;20196;-57
2020/12/27 00:27:01;;;;;;;2.90;1.80;;;5.40;98.10;;;;;;4976776;28;20632;-57
2020/12/27 00:29:27;;;;;;;2.63;2.20;;;5.50;99.90;;;;;;4976731;28;20559;-57
2020/12/27 00:31:54;;;;;;;4.57;2.73;;;5.40;99.90;;;;;;4976866;28;20346;-57
2020/12/27 00:34:21;;;;;;;2.15;1.80;;;5.40;99.90;;;;;;4976598;28;20439;-57
2020/12/27 00:36:47;;;;;;;2.17;2.00;;;5.20;1.00;;;;;;4976861;28;20263;-57
2020/12/27 00:39:13;;;;;;;1.98;1.77;;;5.20;1.00;;;;;;4976634;28;20188;-57
2020/12/27 00:41:39;;;;;;;3.28;2.60;;;5.10;1.00;;;;;;4976742;28;20180;-57
2020/12/27 00:44:05;;;;;;;3.15;2.05;;;5.10;1.00;;;;;;4976542;28;20198;-57
2020/12/27 00:46:31;;;;;;;2.90;2.57;;;5.00;1.00;;;;;;4976873;28;20191;-59
2020/12/27 00:48:56;;;;;;;2.10;1.90;;;5.00;1.00;;;;;;4976670;28;20432;-59
2020/12/27 00:51:27;;;;;;;2.83;2.40;;;5.00;1.00;;;;;;4976421;28;20208;-59
2020/12/27 00:53:53;;;;;;;1.98;1.85;;;5.00;1.00;;;;;;4976258;28;20194;-59
2020/12/27 00:56:18;;;;;;;3.35;2.65;;;5.00;1.00;;;;;;4975003;28;20230;-59
2020/12/27 00:58:44;;;;;;;2.43;2.23;;;4.90;1.00;;;;;;4976273;28;20192;-59
2020/12/27 01:01:11;;;;;;;3.00;2.27;;;4.90;1.00;;;;;;4976337;28;20274;-57
2020/12/27 01:03:37;;;;;;;2.75;2.53;;;4.90;1.00;;;;;;4976023;28;20431;-57
2020/12/27 01:06:03;;;;;;;2.53;2.07;;;4.70;1.00;;;;;;4976424;28;20215;-57
2020/12/27 01:08:29;;;;;;;2.20;2.00;;;4.70;1.00;;;;;;4976455;28;20199;-57
2020/12/27 01:10:54;;;;;;;2.97;2.40;;;4.60;1.00;;;;;;4975169;28;20204;-57
2020/12/27 01:13:20;;;;;;;4.63;3.10;;;4.60;10.30;;;;;;4975866;28;20454;-57
2020/12/27 01:15:47;;;;;;;4.03;3.03;;;4.50;17.20;;;;;;4976055;28;20209;-57
2020/12/27 01:18:13;;;;;;;5.60;3.80;;;4.40;25.70;;;;;;4976189;28;20192;-57
2020/12/27 01:20:39;;;;;;;4.22;2.83;;;4.30;39.40;;;;;;4975941;28;20610;-57
2020/12/27 01:23:05;;;;;;;3.90;3.40;;;4.30;50.30;;;;;;4975855;28;20184;-57
2020/12/27 01:25:30;;;;;;;7.20;3.90;;;4.20;55.80;;;;;;4975808;28;20173;-57
2020/12/27 01:27:56;;;;;;;3.33;2.50;;;4.20;64.80;;;;;;4974918;28;20223;-57
2020/12/27 01:30:21;;;;;;;3.20;2.73;;;4.20;67.60;;;;;;4975764;28;20190;-57
2020/12/27 01:32:47;;;;;;;4.37;2.70;;;4.20;77.70;;;;;;4974728;28;20247;-57
2020/12/27 01:35:12;;;;;;;7.00;3.07;;;4.20;82.90;;;;;;4975942;28;20609;-57
2020/12/27 01:37:38;;;;;;;4.47;3.30;;;4.20;87.60;;;;;;4975663;28;20499;-57
2020/12/27 01:40:05;;;;;;;6.13;3.63;;;4.30;90.00;;;;;;4975649;28;20195;-57
2020/12/27 01:42:30;;;;;;;3.38;3.00;;;4.20;80.00;;;;;;4975593;28;20200;-57
2020/12/27 01:44:56;;;;;;;5.00;3.63;;;4.20;71.90;;;;;;4975653;28;20191;-57
2020/12/27 01:47:23;;;;;;;4.70;3.70;;;4.20;64.60;;;;;;4975498;28;20283;-57
2020/12/27 01:49:50;;;;;;;4.22;2.70;;;4.20;53.40;;;;;;4974968;28;20563;-57
2020/12/27 01:52:16;;;;;;;6.20;3.67;;;4.20;39.80;;;;;;4975424;28;20218;-57
2020/12/27 01:54:42;;;;;;;3.00;2.70;;;4.20;35.30;;;;;;4975084;28;20514;-57
2020/12/27 01:57:13;;;;;;;3.03;2.72;;;4.20;27.80;;;;;;4974354;28;20434;-57
2020/12/27 01:59:39;;;;;;;4.85;3.20;;;4.20;19.30;;;;;;4975202;28;20621;-57
2020/12/27 02:02:06;;;;;;;3.03;2.53;;;4.20;10.90;;;;;;4975330;28;20188;-57
2020/12/27 02:04:32;;;;;;;3.08;2.33;;;4.20;1.80;;;;;;4975041;28;20271;-57
2020/12/27 02:06:58;;;;;;;2.95;2.65;;;4.20;1.00;;;;;;4975224;28;20180;-57
2020/12/27 02:09:24;;;;;;;2.72;2.50;;;4.10;1.00;;;;;;4975205;28;20188;-57
2020/12/27 02:12:06;;;;;;;2.73;2.37;;;4.20;1.00;;;;;;4975058;28;20215;-57
2020/12/27 02:14:32;;;;;;;2.65;2.42;;;4.30;1.00;;;;;;4974909;28;20611;-59
2020/12/27 02:16:58;;;;;;;3.77;2.70;;;4.30;1.00;;;;;;4974887;28;20207;-57
2020/12/27 02:19:23;;;;;;;3.37;2.43;;;4.20;1.00;;;;;;4975014;28;20168;-57
2020/12/27 02:21:49;;;;;;;2.80;2.50;;;4.20;1.00;;;;;;4974954;28;20384;-57
2020/12/27 02:24:15;;;;;;;2.80;2.50;;;4.20;1.00;;;;;;4974769;28;20211;-57
2020/12/27 02:26:56;;;;;;;2.87;2.57;;;4.20;1.00;;;;;;4974842;28;20498;-57
2020/12/27 02:29:22;;;;;;;3.30;2.30;;;4.20;1.00;;;;;;4973855;28;20435;-57
2020/12/27 02:31:47;;;;;;;2.50;2.30;;;4.30;1.00;;;;;;4974674;28;20633;-57
2020/12/27 02:34:13;;;;;;;4.40;2.40;;;4.30;1.00;;;;;;4974534;28;20191;-57
2020/12/27 02:36:38;;;;;;;2.43;2.17;;;4.30;1.00;;;;;;4974996;28;20259;-57
2020/12/27 02:39:11;;;;;;;2.20;2.00;;;4.20;1.00;;;;;;4974785;28;20176;-57
2020/12/27 02:41:37;;;;;;;2.15;1.92;;;4.20;1.00;;;;;;4974896;28;20554;-57
2020/12/27 02:44:04;;;;;;;2.25;2.05;;;4.30;1.00;;;;;;4974656;28;20187;-57
2020/12/27 02:46:30;;;;;;;2.45;2.05;;;4.30;1.00;;;;;;4974675;28;20736;-57
2020/12/27 02:48:56;;;;;;;1.90;1.60;;;4.20;1.00;;;;;;4974777;28;20187;-57
2020/12/27 02:51:23;;;;;;;2.22;1.92;;;4.20;1.00;;;;;;4974760;28;20524;-57
2020/12/27 02:53:49;;;;;;;1.77;1.67;;;4.30;1.00;;;;;;4974471;28;20180;-57
2020/12/27 02:56:16;;;;;;;3.77;2.10;;;4.30;1.00;;;;;;4974982;28;20176;-57
2020/12/27 02:58:41;;;;;;;2.58;1.75;;;4.40;99.90;;;;;;4974489;28;20453;-57
2020/12/27 03:01:07;;;;;;;2.17;1.70;;;4.50;99.90;;;;;;4974673;28;20188;-57
2020/12/27 03:03:32;;;;;;;3.40;1.90;;;4.50;99.90;;;;;;4977115;28;20186;-57
2020/12/27 03:05:58;;;;;;;1.53;1.43;;;4.50;99.90;;;;;;4978583;28;20184;-57
2020/12/27 03:08:23;;;;;;;2.10;1.57;;;4.50;99.90;;;;;;4978472;28;20183;-57
2020/12/27 03:10:49;;;;;;;1.63;1.10;;;4.50;99.90;;;;;;4978383;28;20250;-57
2020/12/27 03:13:14;;;;;;;1.67;1.40;;;4.40;99.90;;;;;;4978043;28;20267;-57
2020/12/27 03:15:40;;;;;;;1.83;1.73;;;4.50;99.90;;;;;;4978376;28;20219;-57
2020/12/27 03:18:05;;;;;;;1.80;1.60;;;4.50;99.90;;;;;;4978410;28;20191;-57
2020/12/27 03:20:31;;;;;;;2.23;2.03;;;4.40;99.90;;;;;;4978349;28;20229;-57
2020/12/27 03:22:56;;;;;;;2.30;1.67;;;4.50;99.90;;;;;;4978253;28;20187;-57
2020/12/27 03:25:22;;;;;;;2.10;1.77;;;4.50;68.80;;;;;;4977929;28;20203;-57
2020/12/27 03:27:47;;;;;;;3.33;1.77;;;4.50;1.00;;;;;;4978093;28;20258;-57
2020/12/27 03:30:13;;;;;;;1.20;1.10;;;4.50;1.00;;;;;;4978174;28;20254;-57
2020/12/27 03:32:39;;;;;;;1.80;1.30;;;4.60;1.00;;;;;;4977921;28;20212;-58
2020/12/27 03:35:05;;;;;;;1.23;1.07;;;4.50;1.00;;;;;;4977883;28;20435;-57
2020/12/27 03:37:35;;;;;;;2.10;1.67;;;4.60;99.90;;;;;;4976920;28;20610;-57
2020/12/27 03:40:03;;;;;;;1.63;1.35;;;4.60;99.90;;;;;;4977173;28;20246;-57
2020/12/27 03:42:28;;;;;;;3.20;1.60;;;4.50;99.90;;;;;;4977819;28;20214;-57
2020/12/27 03:44:54;;;;;;;3.53;1.73;;;4.60;71.30;;;;;;4977628;28;20693;-57
2020/12/27 03:47:20;;;;;;;2.53;1.50;;;4.50;1.00;;;;;;4977790;28;20715;-57
2020/12/27 03:49:45;;;;;;;1.47;1.37;;;4.60;1.00;;;;;;4977743;28;20192;-57
2020/12/27 03:52:11;;;;;;;2.20;1.20;;;4.50;1.00;;;;;;4977513;28;20463;-57
2020/12/27 03:54:36;;;;;;;2.93;1.60;;;4.50;1.00;;;;;;4977353;28;20180;-57
2020/12/27 03:57:02;;;;;;;1.27;1.13;;;4.50;1.00;;;;;;4977915;28;20172;-58
2020/12/27 03:59:27;;;;;;;2.40;2.17;;;4.50;1.00;;;;;;4977467;28;20589;-57
2020/12/27 04:01:53;;;;;;;2.20;2.00;;;4.50;1.00;;;;;;4977701;28;20555;-57
2020/12/27 04:04:18;;;;;;;5.90;2.63;;;4.50;99.90;;;;;;4976584;28;20184;-57
2020/12/27 04:06:44;;;;;;;1.50;1.40;;;4.50;1.00;;;;;;4977434;28;20188;-57
2020/12/27 04:09:09;;;;;;;1.90;1.80;;;4.50;1.00;;;;;;4977594;28;20184;-57
2020/12/27 04:11:35;;;;;;;2.70;1.50;;;4.50;1.00;;;;;;4976350;28;20222;-58
2020/12/27 04:14:01;;;;;;;2.08;1.80;;;4.50;1.00;;;;;;4976575;28;20190;-57
2020/12/27 04:16:27;;;;;;;1.57;1.10;;;4.50;99.90;;;;;;4977292;28;20172;-57
2020/12/27 04:18:52;;;;;;;2.30;1.70;;;4.50;1.00;;;;;;4976129;28;20621;-57
2020/12/27 04:21:18;;;;;;;2.63;1.67;;;4.50;1.00;;;;;;4977146;28;20187;-57
2020/12/27 04:23:43;;;;;;;1.47;1.37;;;4.50;1.00;;;;;;4976947;28;20184;-57
2020/12/27 04:26:13;;;;;;;1.90;1.50;;;4.50;1.00;;;;;;4977116;28;20180;-57
2020/12/27 04:28:39;;;;;;;2.00;1.42;;;4.50;99.90;;;;;;4977438;28;20172;-57
2020/12/27 04:31:05;;;;;;;1.63;1.47;;;4.50;99.90;;;;;;4976984;28;20245;-57
2020/12/27 04:33:30;;;;;;;1.80;1.70;;;4.60;99.90;;;;;;4976812;28;20571;-57
2020/12/27 04:35:56;;;;;;;2.23;1.47;;;4.50;1.00;;;;;;4977185;28;20200;-57
2020/12/27 04:38:21;;;;;;;4.80;1.83;;;4.50;1.00;;;;;;4977023;28;20180;-57
2020/12/27 04:40:47;;;;;;;2.10;1.90;;;4.50;1.00;;;;;;4977110;28;20176;-61
2020/12/27 04:43:14;;;;;;;3.33;2.00;;;4.50;1.00;;;;;;4977288;28;20184;-57
2020/12/27 04:45:40;;;;;;;1.70;1.52;;;4.60;99.90;;;;;;4977293;28;20623;-61
2020/12/27 04:48:07;;;;;;;5.20;2.40;;;4.60;99.90;;;;;;4977246;28;20184;-59
2020/12/27 04:50:33;;;;;;;2.20;1.55;;;4.50;99.90;;;;;;4977076;28;20191;-61
2020/12/27 04:52:59;;;;;;;2.53;2.08;;;4.50;99.90;;;;;;4976921;28;20203;-61
2020/12/27 04:55:25;;;;;;;2.08;1.70;;;4.50;99.90;;;;;;4976445;28;20180;-60
2020/12/27 04:57:51;;;;;;;1.60;1.50;;;4.50;99.90;;;;;;4977161;28;20267;-59
2020/12/27 05:00:20;;;;;;;3.38;1.80;;;4.50;99.90;;;;;;4976957;28;20579;-59
2020/12/27 05:02:46;;;;;;;3.30;2.45;;;4.40;99.90;;;;;;4976814;28;20284;-61
2020/12/27 05:05:14;;;;;;;1.93;1.73;;;4.40;99.90;;;;;;4976659;28;20211;-61
2020/12/27 05:07:43;;;;;;;2.92;2.13;;;4.50;99.90;;;;;;4976529;28;20283;-61
2020/12/27 05:10:12;;;;;;;3.28;2.22;;;4.50;99.90;;;;;;4976467;28;20187;-59
2020/12/27 05:12:37;;;;;;;4.00;2.17;;;4.50;99.90;;;;;;4976298;28;20216;-59
2020/12/27 05:15:07;;;;;;;2.50;1.73;;;4.30;56.00;;;;;;4976009;28;20386;-59
2020/12/27 05:17:32;;;;;;;2.30;1.83;;;4.40;99.90;;;;;;4976071;28;20636;-59
2020/12/27 05:20:06;;;;;;;2.87;2.50;;;4.30;99.90;;;;;;4976050;28;20180;-59
2020/12/27 05:22:33;;;;;;;2.50;2.30;;;4.30;99.90;;;;;;4976217;28;20613;-60
2020/12/27 05:25:00;;;;;;;2.78;2.30;;;4.30;99.90;;;;;;4974862;28;20176;-59
2020/12/27 05:27:26;;;;;;;2.00;1.42;;;4.20;99.90;;;;;;4975955;28;20241;-59
2020/12/27 05:29:52;;;;;;;2.77;2.20;;;4.30;99.90;;;;;;4975847;28;20622;-59
2020/12/27 05:32:19;;;;;;;3.00;2.35;;;4.30;99.90;;;;;;4975983;28;20936;-59
2020/12/27 05:34:44;;;;;;;2.33;2.13;;;4.20;20.60;;;;;;4975560;28;20207;-60
2020/12/27 05:37:16;;;;;;;2.00;1.83;;;4.20;98.10;;;;;;4975624;28;20246;-59
2020/12/27 05:39:44;;;;;;;2.33;2.22;;;4.20;99.90;;;;;;4975956;28;20168;-59
2020/12/27 05:42:10;;;;;;;2.63;2.42;;;4.20;93.40;;;;;;4975822;28;20188;-59
2020/12/27 05:44:36;;;;;;;3.43;1.93;;;4.20;99.90;;;;;;4974392;28;20499;-60
2020/12/27 05:47:02;;;;;;;3.78;2.97;;;4.20;99.90;;;;;;4975627;28;20187;-59
2020/12/27 05:49:28;;;;;;;3.00;2.10;;;4.10;99.90;;;;;;4975509;28;20202;-59
2020/12/27 05:51:58;;;;;;;2.17;1.97;;;4.10;99.90;;;;;;4975403;28;20208;-59
2020/12/27 05:54:34;;;;;;;5.35;3.10;;;4.10;99.90;;;;;;4975578;28;20597;-60
2020/12/27 05:57:01;;;;;;;3.45;2.85;;;4.10;99.90;;;;;;4975528;28;20218;-60
2020/12/27 05:59:33;;;;;;;1.83;1.50;;;4.10;99.90;;;;;;4975273;28;20633;-59
2020/12/27 06:02:00;;;;;;;2.30;2.10;;;4.10;99.90;;;;;;4975342;28;20199;-59
2020/12/27 06:04:38;;;;;;;4.28;2.47;;;4.10;99.90;;;;;;4974996;28;20239;-60
2020/12/27 06:07:06;;;;;;;1.80;1.70;;;4.10;35.50;;;;;;4975317;28;20191;-59
2020/12/27 06:09:38;;;;;;;2.40;2.20;;;4.00;99.90;;;;;;4975269;28;20223;-59
2020/12/27 06:12:05;;;;;;;3.22;2.40;;;4.10;99.90;;;;;;4974947;28;20243;-59
2020/12/27 06:14:37;;;;;;;3.88;2.85;;;4.10;9.80;;;;;;4974849;28;20234;-59
2020/12/27 06:17:14;;;;;;;4.07;2.40;;;4.10;40.70;;;;;;4975299;28;20184;-59
2020/12/27 06:19:57;;;;;;;3.53;2.40;;;4.10;16.30;;;;;;4975055;28;20268;-60
2020/12/27 06:22:28;;;;;;;1.88;1.70;;;4.10;81.10;;;;;;4974953;28;20609;-60
2020/12/27 06:24:56;;;;;;;1.95;1.75;;;4.10;1.00;;;;;;4974911;28;20184;-59
2020/12/27 06:27:25;;;;;;;2.60;1.85;;;4.10;1.00;;;;;;4975079;28;20194;-60
2020/12/27 06:30:16;;;;;;;2.65;1.90;;;4.10;1.00;;;;;;4975280;28;20716;-59
2020/12/27 06:32:46;;;;;;;3.47;1.77;;;4.10;1.00;;;;;;4960950;28;20656;-59
2020/12/27 06:35:11;;;;;;;2.65;2.15;;;4.20;1.00;;;;;;4974650;28;20201;-60
2020/12/27 06:37:44;;;;;;;2.57;2.23;;;4.10;1.00;;;;;;4974649;28;20180;-59
2020/12/27 06:40:11;;;;;;;1.95;1.75;;;4.20;1.00;;;;;;4974724;28;20892;-60
2020/12/27 06:42:37;;;;;;;2.50;1.70;;;4.20;99.90;;;;;;4974783;28;20199;-60
2020/12/27 06:45:05;;;;;;;2.13;1.83;;;4.10;99.90;;;;;;4974558;28;20184;-60
2020/12/27 06:47:53;;;;;;;3.45;1.67;;;4.20;99.90;;;;;;4974604;28;20441;-60
2020/12/27 06:50:20;;;;;;;2.00;1.80;;;4.20;99.90;;;;;;4974520;28;20250;-60
2020/12/27 06:52:46;;;;;;;2.15;1.83;;;4.30;99.90;;;;;;4974395;28;20359;-60
2020/12/27 06:55:32;;;;;;;2.35;1.55;;;4.30;99.90;;;;;;4974190;28;20239;-60
2020/12/27 06:58:15;;;;;;;1.65;1.55;;;4.30;24.20;;;;;;4974413;28;20176;-60
2020/12/27 07:00:41;;;;;;;1.75;1.65;;;4.30;99.90;;;;;;4974466;28;20624;-59
2020/12/27 07:03:15;;;;;;;2.50;1.57;;;4.30;99.90;;;;;;4974127;28;20184;-61
2020/12/27 07:05:41;;;;;;;4.38;1.95;;;4.30;1.00;;;;;;4973339;28;20216;-60
2020/12/27 07:08:09;;;;;;;2.70;1.80;;;4.30;1.00;;;;;;4974360;28;20687;-60
2020/12/27 07:10:38;;;;;;;2.10;1.40;;;4.30;1.00;;;;;;4974479;28;20192;-60
2020/12/27 07:13:06;;;;;;;1.23;1.02;;;4.30;1.00;;;;;;4974319;28;20208;-60
2020/12/27 07:15:32;;;;;;;1.77;1.52;;;4.30;1.00;;;;;;4974303;28;20176;-62
2020/12/27 07:18:08;;;;;;;2.85;1.90;;;4.30;1.00;;;;;;4973354;28;20728;-61
2020/12/27 07:20:38;;;;;;;1.83;1.73;;;4.30;1.00;;;;;;4974357;28;20271;-60
2020/12/27 07:23:11;;;;;;;2.20;1.80;;;4.30;1.00;;;;;;4974291;28;20180;-58
2020/12/27 07:25:43;;;;;;;2.05;1.65;;;4.40;1.00;;;;;;4974322;28;20176;-61
2020/12/27 07:28:10;;;;;;;3.05;2.05;;;4.40;1.00;;;;;;4974300;28;20176;-63
2020/12/27 07:30:36;;;;;;;2.17;1.55;;;4.40;1.00;;;;;;4974212;28;20164;-58
2020/12/27 07:33:08;;;;;;;1.75;1.65;;;4.40;1.00;;;;;;4974039;28;20204;-58
2020/12/27 07:35:35;;;;;;;1.48;1.35;;;4.40;1.00;;;;;;4974402;28;20629;-59
2020/12/27 07:38:02;;;;;;;1.40;1.30;;;4.40;1.00;;;;;;4974123;28;20183;-59
2020/12/27 07:40:33;;;;;;;1.85;1.45;;;4.40;1.00;;;;;;4974156;28;20175;-59
2020/12/27 07:43:00;;;;;;;1.83;1.35;;;4.40;1.00;;;;;;4974143;28;20188;-61
2020/12/27 07:45:25;;;;;;;5.03;3.70;;;4.40;1.00;;;;;;4974057;28;20176;-61
2020/12/27 07:47:51;;;;;;;2.50;1.63;;;4.40;1.00;;;;;;4971607;28;20258;-58
2020/12/27 07:50:19;;;;;;;1.70;1.53;;;4.40;1.00;;;;;;4974809;28;20184;-59
2020/12/27 07:53:00;;;;;;;2.97;1.60;;;4.40;1.00;;;;;;4969686;28;20986;-59
2020/12/27 07:55:42;;;;;;;1.45;1.33;;;4.30;1.00;;;;;;4976033;28;20246;-60
2020/12/27 07:58:08;;;;;;;3.20;1.40;;;4.30;1.00;;;;;;4977311;28;20362;-60
2020/12/27 08:00:42;;;;;;;1.73;1.27;;;4.30;1.00;;;;;;4977572;28;20286;-59
2020/12/27 08:03:09;;;;;;;1.92;1.52;;;4.40;1.00;;;;;;4970284;28;20195;-58
2020/12/27 08:05:35;;;;;;;1.42;1.25;;;4.40;1.00;;;;;;4977483;28;20180;-58
2020/12/27 08:08:05;;;;;;;2.85;1.25;;;4.50;1.00;;;;;;4977243;28;20275;-58
2020/12/27 08:10:31;;;;;;;4.25;1.85;;;4.40;1.00;;;;;;4977411;28;20200;-58
2020/12/27 08:12:58;;;;;;;1.47;1.33;;;4.40;1.00;;;;;;4971966;28;20278;-59
2020/12/27 08:15:26;;;;;;;1.45;1.30;;;4.40;1.00;;;;;;4976979;28;20242;-58
2020/12/27 08:17:58;;;;;;;1.45;1.35;;;4.30;1.00;;;;;;4977110;28;20250;-59
2020/12/27 08:20:24;;;;;;;1.88;1.50;;;4.30;1.00;;;;;;4977229;28;20199;-58
2020/12/27 08:23:07;;;;;;;1.35;1.25;;;4.30;1.00;;;;;;4976703;28;20192;-58
2020/12/27 08:25:34;;;;;;;1.50;1.30;;;4.30;1.00;;;;;;4985533;28;20184;-62
2020/12/27 08:28:02;;;;;;;4.43;2.83;;;4.30;1.00;;;;;;4989773;28;20188;-63
2020/12/27 08:30:29;;;;;;;2.35;1.30;;;4.40;59.40;;;;;;4977190;28;20212;-61
2020/12/27 08:33:12;;;;;;;2.60;1.45;;;4.30;1.00;;;;;;4975967;28;20258;-62
2020/12/27 08:35:41;;;;;;;1.20;1.10;;;4.30;91.70;;;;;;4975850;28;20588;-60
2020/12/27 08:38:15;;;;;;;1.85;1.40;;;4.30;1.00;;;;;;4977783;28;20175;-60
2020/12/27 08:40:44;;;;;;;1.92;1.80;;;4.30;49.60;;;;;;4977008;28;20175;-60
2020/12/27 08:43:30;;;;;;;1.75;1.65;;;4.40;26.60;;;;;;4976687;28;20180;-62
2020/12/27 08:45:56;;;;;;;1.70;1.40;;;4.30;61.70;;;;;;4976788;28;20195;-62
2020/12/27 08:48:37;;;;;;;1.92;1.65;;;4.40;99.90;;;;;;4976870;28;20685;-58
2020/12/27 08:51:05;;;;;;;1.20;1.10;;;4.40;18.90;;;;;;4977082;28;20191;-63
2020/12/27 08:53:39;;;;;;;2.08;1.40;;;4.40;85.30;;;;;;4977238;28;20374;-60
2020/12/27 08:56:05;;;;;;;2.95;1.42;;;4.40;23.50;;;;;;4978003;28;20172;-61
2020/12/27 08:58:31;;;;;;;2.65;1.77;;;4.50;72.50;;;;;;4978327;28;20199;-61
2020/12/27 09:00:56;;;;;;;2.67;1.63;;;4.50;1.00;;;;;;4977127;28;20180;-61
2020/12/27 09:03:22;;;;;;;1.87;1.50;;;4.60;1.00;;;;;;4977995;28;20180;-59
2020/12/27 09:05:47;;;;;;;1.70;1.57;;;4.60;1.00;;;;;;4977541;28;20180;-59
2020/12/27 09:08:16;;;;;;;2.10;1.60;;;4.70;1.00;;;;;;4978097;28;20251;-59
2020/12/27 09:10:42;;;;;;;2.55;1.35;;;4.60;1.00;;;;;;4978755;28;20192;-57
2020/12/27 09:13:13;;;;;;;1.42;1.30;;;4.60;1.00;;;;;;4977621;28;20219;-58
2020/12/27 09:15:44;;;;;;;1.73;1.63;;;4.70;1.00;;;;;;4978222;28;20181;-59
2020/12/27 09:18:16;;;;;;;1.20;1.10;;;4.70;1.00;;;;;;4977859;28;20203;-60
2020/12/27 09:20:43;;;;;;;5.32;1.23;;;4.80;1.00;;;;;;4978049;28;20179;-58
2020/12/27 09:23:17;;;;;;;2.97;2.10;;;4.80;1.00;;;;;;4977688;28;20187;-58
2020/12/27 09:25:44;;;;;;;2.70;2.00;;;4.90;1.00;;;;;;4978226;28;20219;-58
2020/12/27 09:28:16;;;;;;;4.93;3.35;;;4.90;1.00;;;;;;4979082;28;20248;-58
2020/12/27 09:30:42;;;;;;;3.00;1.90;;;4.90;1.00;;;;;;4977577;28;20235;-58
2020/12/27 09:33:08;;;;;;;2.08;1.40;;;4.90;1.00;;;;;;4976746;28;20207;-58
2020/12/27 09:35:34;;;;;;;1.40;1.30;;;4.90;1.00;;;;;;4977689;28;20190;-58
2020/12/27 09:38:00;;;;;;;3.38;2.15;;;5.00;1.00;;;;;;4976926;28;20257;-58
2020/12/27 09:40:26;;;;;;;4.77;2.40;;;4.90;1.00;;;;;;4977376;28;20225;-58
2020/12/27 09:43:03;;;;;;;2.33;2.10;;;5.00;1.00;;;;;;4977143;28;20184;-58
2020/12/27 09:45:29;;;;;;;3.03;1.75;;;4.90;1.00;;;;;;4977134;28;20686;-58
2020/12/27 09:47:59;;;;;;;2.77;1.50;;;5.00;1.00;;;;;;4977062;28;20219;-58
2020/12/27 09:50:34;;;;;;;4.82;1.75;;;5.00;1.00;;;;;;4977812;28;20488;-59
2020/12/27 09:53:01;;;;;;;1.52;1.30;;;5.00;1.00;;;;;;4976653;28;20659;-59
2020/12/27 09:55:27;;;;;;;2.50;1.40;;;5.00;1.00;;;;;;4976999;28;20582;-59
2020/12/27 09:57:53;;;;;;;2.10;1.58;;;5.00;1.00;;;;;;4977566;28;20180;-59
2020/12/27 10:00:19;;;;;;;2.35;1.90;;;5.00;99.90;;;;;;4976535;28;20206;-59
2020/12/27 10:02:45;;;;;;;3.70;1.43;;;5.00;99.90;;;;;;4977703;28;20295;-58
2020/12/27 10:05:11;;;;;;;3.60;2.30;;;5.00;1.00;;;;;;4976311;28;20423;-59
2020/12/27 10:07:38;;;;;;;1.55;1.40;;;5.00;1.00;;;;;;4976465;28;20172;-58
2020/12/27 10:10:05;;;;;;;1.75;1.60;;;5.00;99.90;;;;;;4977536;28;20204;-62
2020/12/27 10:12:32;;;;;;;1.60;1.50;;;5.00;99.90;;;;;;4975936;28;20222;-62
2020/12/27 10:14:57;;;;;;;1.52;1.42;;;4.90;99.90;;;;;;4971881;28;20223;-62
2020/12/27 10:17:23;;;;;;;1.37;1.10;;;4.90;99.90;;;;;;4977496;28;20191;-58
2020/12/27 10:19:49;;;;;;;2.20;1.20;;;5.00;99.90;;;;;;4976400;28;20203;-61
2020/12/27 10:22:15;;;;;;;1.67;1.30;;;5.10;99.90;;;;;;4977062;28;20605;-60
2020/12/27 10:24:41;;;;;;;1.45;1.35;;;5.10;99.90;;;;;;4975116;28;20187;-60
2020/12/27 10:27:07;;;;;;;2.50;1.25;;;5.10;99.90;;;;;;4975414;28;20179;-61
2020/12/27 10:29:34;;;;;;;1.40;1.07;;;5.10;99.90;;;;;;4975848;28;20199;-59
2020/12/27 10:32:02;;;;;;;1.38;1.27;;;5.10;99.90;;;;;;4977025;28;20715;-61
2020/12/27 10:34:28;;;;;;;2.40;1.25;;;5.20;90.10;;;;;;4970624;28;20251;-63
2020/12/27 10:36:56;;;;;;;4.20;1.87;;;5.20;19.70;;;;;;4972731;28;20556;-62
2020/12/27 10:39:23;;;;;;;3.90;2.15;;;5.20;17.20;;;;;;4974543;28;20432;-61
2020/12/27 10:41:50;;;;;;;2.03;1.40;;;5.30;1.00;;;;;;4972525;28;20660;-63
2020/12/27 10:44:17;;;;;;;2.38;1.08;;;5.30;1.00;;;;;;4981767;28;20203;-61
2020/12/27 10:46:50;;;;;;;1.30;1.10;;;5.40;1.00;;;;;;4977154;28;20264;-62
2020/12/27 10:49:18;;;;;;;2.13;1.30;;;5.40;1.00;;;;;;4989936;28;20191;-62
2020/12/27 10:51:47;;;;;;;1.98;1.40;;;5.40;1.00;;;;;;4984285;28;20210;-62
2020/12/27 10:54:13;;;;;;;1.30;1.05;;;5.40;1.00;;;;;;4979714;28;20696;-58
2020/12/27 10:56:41;;;;;;;1.65;1.00;;;5.50;1.00;;;;;;4989535;28;20223;-62
2020/12/27 10:59:07;;;;;;;3.85;1.20;;;5.50;1.00;;;;;;4987344;28;20235;-59
2020/12/27 11:01:33;;;;;;;1.65;1.00;;;5.50;1.00;;;;;;4993586;28;20515;-60
2020/12/27 11:03:59;;;;;;;0.80;0.80;;;5.50;1.00;;;;;;4980280;28;20175;-57
2020/12/27 11:06:31;;;;;;;2.30;1.80;;;5.60;1.00;;;;;;4979550;28;20747;-59
2020/12/27 11:08:59;;;;;;;1.13;1.02;;;5.60;1.00;;;;;;4987157;28;20663;-58
2020/12/27 11:11:25;;;;;;;2.50;1.30;;;5.60;1.00;;;;;;4978327;28;20501;-58
2020/12/27 11:13:51;;;;;;;1.38;0.98;;;5.60;1.00;;;;;;4986724;28;20234;-58
2020/12/27 11:16:17;;;;;;;2.93;1.00;;;5.60;1.00;;;;;;4987476;28;20225;-58
2020/12/27 11:18:44;;;;;;;2.00;1.30;;;5.60;1.00;;;;;;4979612;28;20194;-61
2020/12/27 11:21:11;;;;;;;3.45;1.50;;;5.60;1.00;;;;;;4984225;28;20571;-62
2020/12/27 11:23:36;;;;;;;1.13;1.02;;;5.60;1.00;;;;;;4976582;28;20190;-61
2020/12/27 11:26:02;;;;;;;0.80;0.80;;;5.70;1.00;;;;;;4989487;28;20485;-62
2020/12/27 11:28:28;;;;;;;1.53;1.20;;;5.70;1.00;;;;;;4983107;28;20533;-60
2020/12/27 11:30:53;;;;;;;1.10;1.00;;;5.70;1.00;;;;;;4988291;28;20443;-61
2020/12/27 11:33:19;;;;;;;1.63;1.13;;;5.70;1.00;;;;;;4986031;28;20633;-60
2020/12/27 11:35:45;;;;;;;1.90;1.27;;;5.70;1.00;;;;;;4987659;28;20258;-60
2020/12/27 11:38:10;;;;;;;1.50;1.13;;;5.70;1.00;;;;;;4982131;28;20783;-61
2020/12/27 11:40:36;;;;;;;1.13;1.03;;;5.80;1.00;;;;;;4977578;28;20263;-60
2020/12/27 11:43:01;;;;;;;1.23;0.93;;;5.80;99.90;;;;;;4984833;28;20250;-60
2020/12/27 11:45:27;;;;;;;1.40;1.20;;;5.80;1.00;;;;;;4980528;28;20200;-60
2020/12/27 11:47:52;;;;;;;1.83;1.13;;;5.80;1.00;;;;;;4988386;28;20278;-60
2020/12/27 11:50:18;;;;;;;1.40;1.00;;;5.70;1.00;;;;;;4996705;28;20192;-60
2020/12/27 11:52:44;;;;;;;1.83;1.10;;;5.80;1.00;;;;;;4996362;28;20229;-60
2020/12/27 11:55:09;;;;;;;0.90;0.90;;;5.80;1.00;;;;;;4978462;28;20676;-63
2020/12/27 11:57:35;;;;;;;2.23;1.20;;;5.90;1.00;;;;;;4976813;28;20195;-63
2020/12/27 12:00:06;;;;;;;0.90;0.80;;;5.80;1.00;;;;;;4977297;28;20196;-63
2020/12/27 12:02:32;;;;;;;1.77;1.17;;;5.80;1.00;;;;;;4984103;28;20232;-63
2020/12/27 12:04:58;;;;;;;1.13;1.00;;;5.90;1.00;;;;;;4995552;28;20183;-64
2020/12/27 12:07:23;;;;;;;1.60;1.10;;;5.90;1.00;;;;;;4977448;28;20200;-64
2020/12/27 12:09:49;;;;;;;2.23;1.40;;;5.80;1.00;;;;;;4983954;28;20187;-63
2020/12/27 12:12:15;;;;;;;1.43;1.33;;;5.90;1.00;;;;;;4983106;28;20207;-63
2020/12/27 12:14:40;;;;;;;3.70;2.17;;;5.90;1.00;;;;;;4985219;28;20206;-63
2020/12/27 12:17:06;;;;;;;3.83;2.90;;;5.90;1.00;;;;;;4986773;28;20179;-63
2020/12/27 12:19:32;;;;;;;2.90;1.83;;;5.90;1.00;;;;;;4991132;28;20183;-64
2020/12/27 12:21:57;;;;;;;1.57;1.27;;;5.90;17.80;;;;;;4984902;28;20574;-63
2020/12/27 12:24:23;;;;;;;1.37;1.10;;;5.90;99.90;;;;;;4994556;28;20183;-64
2020/12/27 12:26:49;;;;;;;1.17;1.03;;;5.80;99.90;;;;;;4996480;28;20186;-64
2020/12/27 12:29:15;;;;;;;1.20;0.93;;;5.80;1.00;;;;;;4984273;28;20621;-63
2020/12/27 12:31:41;;;;;;;1.48;1.20;;;5.80;1.00;;;;;;4986663;28;20267;-62
2020/12/27 12:34:07;;;;;;;2.10;1.30;;;5.70;99.90;;;;;;4994900;28;20253;-62
2020/12/27 12:36:34;;;;;;;2.05;1.05;;;5.70;99.90;;;;;;4995835;28;20207;-62
2020/12/27 12:38:59;;;;;;;2.00;1.20;;;5.60;1.00;;;;;;4996008;28;20179;-64
2020/12/27 12:41:26;;;;;;;1.93;1.30;;;5.50;99.90;;;;;;4995866;28;20252;-63
2020/12/27 12:43:52;;;;;;;3.35;1.35;;;5.40;1.00;;;;;;4995281;28;20188;-64
2020/12/27 12:46:24;;;;;;;2.20;1.10;;;5.30;99.90;;;;;;4995732;28;20183;-64
2020/12/27 12:48:51;;;;;;;2.75;1.30;;;5.20;1.00;;;;;;4984233;28;20431;-64
2020/12/27 12:51:17;;;;;;;1.08;0.98;;;5.20;99.90;;;;;;4974117;28;20199;-64
2020/12/27 12:53:43;;;;;;;4.90;1.47;;;5.20;1.00;;;;;;4975657;28;20175;-63
2020/12/27 12:56:12;;;;;;;1.10;1.00;;;5.10;24.90;;;;;;4976581;28;20245;-64
2020/12/27 12:58:38;;;;;;;3.95;1.25;;;5.00;1.00;;;;;;4994080;28;20302;-64
2020/12/27 13:01:10;;;;;;;1.03;1.03;;;5.00;1.00;;;;;;4995292;28;20289;-62
2020/12/27 13:03:36;;;;;;;1.45;1.35;;;4.90;31.20;;;;;;4995140;28;20459;-62